Flight Track Log - Related Links

Times and Time Zones

All times are in EST time to prevent confusion due to time zone crossing. See the CAL222 flight status page for this flight to view local times or setup timezone preferences in your user account.

Time Position Orientation Groundspeed Altitude Reporting Facility
EST Latitude Longitude Course Direction KTS MPH feet Rate Location/Type
Sat 09:50:00 AM 25.3311 121.9221 52° Northeast  Level Estimated
Sat 09:51:00 AM 25.4181 122.0460 52° Northeast  Level Estimated
Sat 09:52:00 AM 25.5051 122.1700 52° Northeast  Level Estimated
Sat 09:53:00 AM 25.5919 122.2942 52° Northeast  Level Estimated
Sat 09:54:00 AM 25.6786 122.4186 52° Northeast  Level Estimated
Sat 09:55:00 AM 25.7652 122.5431 52° Northeast  Level Estimated
Sat 09:56:00 AM 25.8517 122.6679 52° Northeast  Level Estimated
Sat 09:57:00 AM 25.9381 122.7928 52° Northeast  Level Estimated
Sat 09:58:00 AM 26.0244 122.9179 52° Northeast  Level Estimated
Sat 09:59:00 AM 26.1105 123.0432 53° Northeast  Level Estimated
Sat 10:00:00 AM 26.1966 123.1687 53° Northeast  Level Estimated
Sat 10:01:00 AM 26.2826 123.2943 53° Northeast  Level Estimated
Sat 10:02:00 AM 26.3684 123.4202 53° Northeast  Level Estimated
Sat 10:03:00 AM 26.4542 123.5462 53° Northeast  Level Estimated
Sat 10:04:00 AM 26.5398 123.6724 53° Northeast  Level Estimated
Sat 10:05:00 AM 26.6253 123.7989 53° Northeast  Level Estimated
Sat 10:06:00 AM 26.7107 123.9255 53° Northeast  Level Estimated
Sat 10:07:00 AM 26.7960 124.0523 53° Northeast  Level Estimated
Sat 10:08:00 AM 26.8812 124.1792 53° Northeast  Level Estimated
Sat 10:09:00 AM 26.9662 124.3064 53° Northeast  Level Estimated
Sat 10:10:00 AM 27.0512 124.4338 53° Northeast  Level Estimated
Sat 10:11:00 AM 27.1360 124.5613 53° Northeast  Level Estimated
Sat 10:12:00 AM 27.2208 124.6891 53° Northeast  Level Estimated
Sat 10:13:00 AM 27.3054 124.8170 53° Northeast  Level Estimated
Sat 10:14:00 AM 27.3899 124.9452 53° Northeast  Level Estimated
Sat 10:15:00 AM 27.4742 125.0735 53° Northeast  Level Estimated
Sat 10:16:00 AM 27.5585 125.2020 54° Northeast  Level Estimated
Sat 10:17:00 AM 27.6426 125.3308 54° Northeast  Level Estimated
Sat 10:18:00 AM 27.7266 125.4597 54° Northeast  Level Estimated
Sat 10:19:00 AM 27.8105 125.5888 54° Northeast  Level Estimated
Sat 10:20:00 AM 27.8943 125.7182 54° Northeast  Level Estimated
Sat 10:21:00 AM 27.9779 125.8477 54° Northeast  Level Estimated
Sat 10:22:00 AM 28.0615 125.9774 54° Northeast  Level Estimated
Sat 10:23:00 AM 28.1449 126.1074 54° Northeast  Level Estimated
Sat 10:24:00 AM 28.2282 126.2375 54° Northeast  Level Estimated
Sat 10:25:00 AM 28.3113 126.3678 54° Northeast  Level Estimated
Sat 10:26:00 AM 28.3944 126.4984 54° Northeast  Level Estimated
Sat 10:27:00 AM 28.4773 126.6291 54° Northeast  Level Estimated
Sat 10:28:00 AM 28.5601 126.7600 54° Northeast  Level Estimated
Sat 10:29:00 AM 28.6428 126.8912 54° Northeast  Level Estimated
Sat 10:30:00 AM 28.7253 127.0226 54° Northeast  Level Estimated
Sat 10:31:00 AM 28.8077 127.1541 54° Northeast  Level Estimated
Sat 10:32:00 AM 28.8900 127.2859 54° Northeast  Level Estimated
Sat 10:33:00 AM 28.9722 127.4179 55° Northeast  Level Estimated
Sat 10:34:00 AM 29.0542 127.5501 55° Northeast  Level Estimated
Sat 10:35:00 AM 29.1361 127.6825 55° Northeast  Level Estimated
Sat 10:36:00 AM 29.2178 127.8151 55° Northeast  Level Estimated
Sat 10:37:00 AM 29.2995 127.9480 55° Northeast  Level Estimated
Sat 10:38:00 AM 29.3810 128.0810 55° Northeast  Level Estimated
Sat 10:39:00 AM 29.4624 128.2143 55° Northeast  Level Estimated
Sat 10:40:00 AM 29.5436 128.3477 55° Northeast  Level Estimated
Sat 10:41:00 AM 29.6247 128.4814 55° Northeast  Level Estimated
Sat 10:42:00 AM 29.7057 128.6153 55° Northeast  Level Estimated
Sat 10:43:00 AM 29.7865 128.7494 55° Northeast  Level Estimated
Sat 10:44:00 AM 29.8672 128.8837 55° Northeast  Level Estimated
Sat 10:45:00 AM 29.9478 129.0183 55° Northeast  Level Estimated
Sat 10:46:00 AM 30.0282 129.1531 55° Northeast  Level Estimated
Sat 10:47:00 AM 30.1085 129.2881 55° Northeast  Level Estimated
Sat 10:48:00 AM 30.1886 129.4232 56° Northeast  Level Estimated
Sat 10:49:00 AM 30.2687 129.5587 56° Northeast  Level Estimated
Sat 10:50:00 AM 30.3485 129.6943 56° Northeast  Level Estimated
Sat 10:51:00 AM 30.4282 129.8302 56° Northeast  Level Estimated
Sat 10:52:00 AM 30.5078 129.9663 56° Northeast  Level Estimated
Sat 10:53:00 AM 30.5873 130.1026 56° Northeast  Level Estimated
Sat 10:54:00 AM 30.6666 130.2391 56° Northeast  Level Estimated
Sat 10:55:00 AM 30.7458 130.3759 56° Northeast  Level Estimated
Sat 10:56:00 AM 30.8248 130.5128 56° Northeast  Level Estimated
Sat 10:57:00 AM 30.9037 130.6501 56° Northeast  Level Estimated
Sat 10:58:00 AM 30.9824 130.7875 56° Northeast  Level Estimated
Sat 10:59:00 AM 31.0610 130.9252 56° Northeast  Level Estimated
Sat 11:00:00 AM 31.1394 131.0630 56° Northeast  Level Estimated
Sat 11:01:00 AM 31.2177 131.2012 56° Northeast  Level Estimated
Sat 11:02:00 AM 31.2959 131.3395 57° Northeast  Level Estimated
Sat 11:03:00 AM 31.3738 131.4781 57° Northeast  Level Estimated
Sat 11:04:00 AM 31.4517 131.6169 57° Northeast  Level Estimated
Sat 11:05:00 AM 31.5294 131.7559 57° Northeast  Level Estimated
Sat 11:06:00 AM 31.6070 131.8952 57° Northeast  Level Estimated
Sat 11:07:00 AM 31.6843 132.0347 57° Northeast  Level Estimated
Sat 11:08:00 AM 31.7616 132.1744 57° Northeast  Level Estimated
Sat 11:09:00 AM 31.8387 132.3144 57° Northeast  Level Estimated
Sat 11:10:00 AM 31.9156 132.4546 57° Northeast  Level Estimated
Sat 11:11:00 AM 31.9924 132.5950 57° Northeast  Level Estimated
Sat 11:12:00 AM 32.0690 132.7357 57° Northeast  Level Estimated
Sat 11:13:00 AM 32.1455 132.8766 57° Northeast  Level Estimated
Sat 11:14:00 AM 32.2218 133.0177 57° Northeast  Level Estimated
Sat 11:15:00 AM 32.2980 133.1591 57° Northeast  Level Estimated
Sat 11:16:00 AM 32.3740 133.3008 58° Northeast  Level Estimated
Sat 11:17:00 AM 32.4498 133.4426 58° Northeast  Level Estimated
Sat 11:18:00 AM 32.5255 133.5847 58° Northeast  Level Estimated
Sat 11:19:00 AM 32.6010 133.7270 58° Northeast  Level Estimated
Sat 11:20:00 AM 32.6764 133.8696 58° Northeast  Level Estimated
Sat 11:21:00 AM 32.7516 134.0124 58° Northeast  Level Estimated
Sat 11:22:00 AM 32.8266 134.1555 58° Northeast  Level Estimated
Sat 11:23:00 AM 32.9015 134.2987 58° Northeast  Level Estimated
Sat 11:24:00 AM 32.9762 134.4423 58° Northeast  Level Estimated
Sat 11:25:00 AM 33.0508 134.5861 58° Northeast  Level Estimated
Sat 11:26:00 AM 33.1251 134.7301 58° Northeast  Level Estimated
Sat 11:27:00 AM 33.1993 134.8743 58° Northeast  Level Estimated
Sat 11:28:00 AM 33.2734 135.0189 58° Northeast  Level Estimated
Sat 11:29:00 AM 33.3473 135.1636 59° Northeast  Level Estimated
Sat 11:30:00 AM 33.4210 135.3086 59° Northeast  Level Estimated
Sat 11:31:00 AM 33.4945 135.4539 59° Northeast  Level Estimated
Sat 11:32:00 AM 33.5679 135.5994 59° Northeast  Level Estimated
Sat 11:33:00 AM 33.6411 135.7451 59° Northeast  Level Estimated
Sat 11:34:00 AM 33.7141 135.8911 59° Northeast  Level Estimated
Sat 11:35:00 AM 33.7870 136.0373 59° Northeast  Level Estimated
Sat 11:36:00 AM 33.8597 136.1838 59° Northeast  Level Estimated
Sat 11:37:00 AM 33.9322 136.3306 59° Northeast  Level Estimated
Sat 11:38:00 AM 34.0045 136.4776 59° Northeast  Level Estimated
Sat 11:39:00 AM 34.0767 136.6248 59° Northeast  Level Estimated
Sat 11:40:00 AM 34.1487 136.7723 59° Northeast  Level Estimated
Sat 11:41:00 AM 34.2205 136.9200 60° Northeast  Level Estimated
Sat 11:42:00 AM 34.2921 137.0680 60° Northeast  Level Estimated
Sat 11:43:00 AM 34.3636 137.2162 60° Northeast  Level Estimated
Sat 11:44:00 AM 34.4349 137.3647 60° Northeast  Level Estimated
Sat 11:45:00 AM 34.5060 137.5135 60° Northeast  Level Estimated
Sat 11:46:00 AM 34.5769 137.6625 60° Northeast  Level Estimated
Sat 11:47:00 AM 34.6476 137.8118 60° Northeast  Level Estimated
Sat 11:48:00 AM 34.7182 137.9613 60° Northeast  Level Estimated
Sat 11:49:00 AM 34.7886 138.1110 60° Northeast  Level Estimated
Sat 11:50:00 AM 34.8587 138.2610 60° Northeast  Level Estimated
Sat 11:51:00 AM 34.9287 138.4113 60° Northeast  Level Estimated
Sat 11:52:00 AM 34.9986 138.5619 60° Northeast  Level Estimated
Sat 11:53:00 AM 35.0682 138.7126 61° Northeast  Level Estimated
Sat 11:54:00 AM 35.1376 138.8637 61° Northeast  Level Estimated
Sat 11:55:00 AM 35.2069 139.0150 61° Northeast  Level Estimated
Sat 11:56:00 AM 35.2760 139.1666 61° Northeast  Level Estimated
Sat 11:57:00 AM 35.3448 139.3184 61° Northeast  Level Estimated
Sat 11:58:00 AM 35.4135 139.4705 61° Northeast  Level Estimated
Sat 11:59:00 AM 35.4820 139.6228 61° Northeast  Level Estimated
Sat 12:00:00 PM 35.5503 139.7754 61° Northeast  Level Estimated
Sat 12:01:00 PM 35.5523 139.7797 61° Northeast  Level Estimated
Sat 12:02:00 PM 35.5523 139.7797 122° Southeast  Level Estimated
Sat 12:03:00 PM 35.5523 139.7797 122° Southeast  Level Estimated
Sat 12:04:00 PM 35.5523 139.7797 122° Southeast  Level Estimated
Sat 12:05:00 PM 35.5523 139.7797 122° Southeast  Level Estimated
Sat 12:06:00 PM 35.5523 139.7797 122° Southeast  Level Estimated
Sat 12:07:00 PM 35.5523 139.7797 122° Southeast  Level Estimated
Sat 12:08:00 PM 35.5523 139.7797 122° Southeast  Level Estimated
Sat 12:09:00 PM 35.5523 139.7797 122° Southeast  Level Estimated
Sat 12:10:00 PM 35.5523 139.7797 122° Southeast  Level Estimated
Sat 12:11:00 PM 35.5523 139.7797 122° Southeast  Level Estimated
Sat 12:12:00 PM 35.5523 139.7797 122° Southeast  Level Estimated
Sat 12:13:00 PM 35.5523 139.7797 122° Southeast  Level Estimated
Sat 12:14:00 PM 35.5523 139.7797 122° Southeast  Level Estimated
Sat 12:15:00 PM 35.5523 139.7797 122° Southeast  Level Estimated
Sat 12:16:00 PM 35.5523 139.7797 122° Southeast  Level Estimated

Login

Don't have an account? Register now (free) for customized features, flight alerts, and more!